sensor_id;sensor_type;location;lat;lon;timestamp;P1;durP1;ratioP1;P2;durP2;ratioP2
16593;SDS011;8410;52.532;13.336;2023-01-26T00:00:55;22.83;;;14.47;;
16593;SDS011;8410;52.532;13.336;2023-01-26T00:03:24;20.20;;;14.47;;
16593;SDS011;8410;52.532;13.336;2023-01-26T00:05:52;23.47;;;15.50;;
16593;SDS011;8410;52.532;13.336;2023-01-26T00:08:20;25.20;;;16.10;;
16593;SDS011;8410;52.532;13.336;2023-01-26T00:10:47;21.53;;;15.03;;
16593;SDS011;8410;52.532;13.336;2023-01-26T00:13:16;21.07;;;14.83;;
16593;SDS011;8410;52.532;13.336;2023-01-26T00:15:45;22.53;;;13.73;;
16593;SDS011;8410;52.532;13.336;2023-01-26T00:18:12;24.10;;;15.67;;
16593;SDS011;8410;52.532;13.336;2023-01-26T00:20:42;21.47;;;14.20;;
16593;SDS011;8410;52.532;13.336;2023-01-26T00:23:09;23.10;;;15.10;;
16593;SDS011;8410;52.532;13.336;2023-01-26T00:25:37;26.63;;;16.30;;
16593;SDS011;8410;52.532;13.336;2023-01-26T00:28:06;23.53;;;16.23;;
16593;SDS011;8410;52.532;13.336;2023-01-26T00:30:33;23.93;;;15.40;;
16593;SDS011;8410;52.532;13.336;2023-01-26T00:33:01;25.30;;;15.70;;
16593;SDS011;8410;52.532;13.336;2023-01-26T00:35:28;22.67;;;16.40;;
16593;SDS011;8410;52.532;13.336;2023-01-26T00:37:57;23.70;;;15.83;;
16593;SDS011;8410;52.532;13.336;2023-01-26T00:40:25;22.60;;;15.87;;
16593;SDS011;8410;52.532;13.336;2023-01-26T00:42:52;24.10;;;15.27;;
16593;SDS011;8410;52.532;13.336;2023-01-26T00:45:20;24.73;;;17.00;;
16593;SDS011;8410;52.532;13.336;2023-01-26T00:47:47;23.87;;;16.73;;
16593;SDS011;8410;52.532;13.336;2023-01-26T00:50:15;23.50;;;15.53;;
16593;SDS011;8410;52.532;13.336;2023-01-26T00:52:43;24.27;;;16.23;;
16593;SDS011;8410;52.532;13.336;2023-01-26T00:55:11;27.70;;;17.53;;
16593;SDS011;8410;52.532;13.336;2023-01-26T00:57:40;26.00;;;17.67;;
16593;SDS011;8410;52.532;13.336;2023-01-26T01:00:08;24.77;;;17.67;;
16593;SDS011;8410;52.532;13.336;2023-01-26T01:02:39;26.63;;;17.30;;
16593;SDS011;8410;52.532;13.336;2023-01-26T01:05:06;24.20;;;16.70;;
16593;SDS011;8410;52.532;13.336;2023-01-26T01:07:34;26.00;;;17.80;;
16593;SDS011;8410;52.532;13.336;2023-01-26T01:10:02;24.40;;;17.57;;
16593;SDS011;8410;52.532;13.336;2023-01-26T01:12:31;28.57;;;18.10;;
16593;SDS011;8410;52.532;13.336;2023-01-26T01:14:58;26.57;;;17.80;;
16593;SDS011;8410;52.532;13.336;2023-01-26T01:17:26;27.73;;;17.30;;
16593;SDS011;8410;52.532;13.336;2023-01-26T01:19:54;25.77;;;17.73;;
16593;SDS011;8410;52.532;13.336;2023-01-26T01:22:21;26.17;;;17.77;;
16593;SDS011;8410;52.532;13.336;2023-01-26T01:24:49;31.60;;;18.27;;
16593;SDS011;8410;52.532;13.336;2023-01-26T01:27:16;28.87;;;18.50;;
16593;SDS011;8410;52.532;13.336;2023-01-26T01:29:45;31.07;;;18.70;;
16593;SDS011;8410;52.532;13.336;2023-01-26T01:32:12;27.00;;;17.50;;
16593;SDS011;8410;52.532;13.336;2023-01-26T01:34:40;30.13;;;19.13;;
16593;SDS011;8410;52.532;13.336;2023-01-26T01:37:07;29.30;;;18.47;;
16593;SDS011;8410;52.532;13.336;2023-01-26T01:39:35;29.50;;;18.00;;
16593;SDS011;8410;52.532;13.336;2023-01-26T01:42:02;31.10;;;19.40;;
16593;SDS011;8410;52.532;13.336;2023-01-26T01:44:30;29.97;;;19.20;;
16593;SDS011;8410;52.532;13.336;2023-01-26T01:46:59;32.73;;;20.30;;
16593;SDS011;8410;52.532;13.336;2023-01-26T01:49:29;34.47;;;19.80;;
16593;SDS011;8410;52.532;13.336;2023-01-26T01:52:00;29.20;;;19.03;;
16593;SDS011;8410;52.532;13.336;2023-01-26T01:54:33;27.07;;;18.93;;
16593;SDS011;8410;52.532;13.336;2023-01-26T01:57:07;31.80;;;19.23;;
16593;SDS011;8410;52.532;13.336;2023-01-26T01:59:40;29.47;;;18.83;;
16593;SDS011;8410;52.532;13.336;2023-01-26T02:02:13;29.23;;;19.30;;
16593;SDS011;8410;52.532;13.336;2023-01-26T02:04:41;29.63;;;18.00;;
16593;SDS011;8410;52.532;13.336;2023-01-26T02:07:09;30.27;;;17.87;;
16593;SDS011;8410;52.532;13.336;2023-01-26T02:09:38;28.67;;;17.73;;
16593;SDS011;8410;52.532;13.336;2023-01-26T02:12:25;28.33;;;17.97;;
16593;SDS011;8410;52.532;13.336;2023-01-26T02:14:56;27.70;;;17.23;;
16593;SDS011;8410;52.532;13.336;2023-01-26T02:17:25;32.20;;;19.80;;
16593;SDS011;8410;52.532;13.336;2023-01-26T02:20:04;29.23;;;18.07;;
16593;SDS011;8410;52.532;13.336;2023-01-26T02:22:41;27.03;;;16.50;;
16593;SDS011;8410;52.532;13.336;2023-01-26T02:25:17;29.40;;;16.17;;
16593;SDS011;8410;52.532;13.336;2023-01-26T02:27:50;27.80;;;16.40;;
16593;SDS011;8410;52.532;13.336;2023-01-26T02:30:17;26.77;;;16.77;;
16593;SDS011;8410;52.532;13.336;2023-01-26T02:32:46;28.53;;;17.50;;
16593;SDS011;8410;52.532;13.336;2023-01-26T02:35:13;32.07;;;18.37;;
16593;SDS011;8410;52.532;13.336;2023-01-26T02:37:41;35.37;;;18.60;;
16593;SDS011;8410;52.532;13.336;2023-01-26T02:40:11;31.67;;;17.73;;
16593;SDS011;8410;52.532;13.336;2023-01-26T02:42:47;29.60;;;17.30;;
16593;SDS011;8410;52.532;13.336;2023-01-26T02:45:15;32.30;;;18.20;;
16593;SDS011;8410;52.532;13.336;2023-01-26T02:47:43;31.03;;;18.80;;
16593;SDS011;8410;52.532;13.336;2023-01-26T02:50:11;30.80;;;18.20;;
16593;SDS011;8410;52.532;13.336;2023-01-26T02:52:38;29.10;;;17.30;;
16593;SDS011;8410;52.532;13.336;2023-01-26T02:55:06;33.47;;;18.13;;
16593;SDS011;8410;52.532;13.336;2023-01-26T02:57:52;28.40;;;17.40;;
16593;SDS011;8410;52.532;13.336;2023-01-26T03:00:22;31.27;;;17.77;;
16593;SDS011;8410;52.532;13.336;2023-01-26T03:02:52;29.10;;;16.30;;
16593;SDS011;8410;52.532;13.336;2023-01-26T03:05:21;28.80;;;17.83;;
16593;SDS011;8410;52.532;13.336;2023-01-26T03:07:49;28.70;;;17.57;;
16593;SDS011;8410;52.532;13.336;2023-01-26T03:10:16;30.37;;;17.50;;
16593;SDS011;8410;52.532;13.336;2023-01-26T03:12:44;27.83;;;18.03;;
16593;SDS011;8410;52.532;13.336;2023-01-26T03:15:12;25.87;;;16.87;;
16593;SDS011;8410;52.532;13.336;2023-01-26T03:18:04;29.33;;;16.00;;
16593;SDS011;8410;52.532;13.336;2023-01-26T03:20:57;26.20;;;15.60;;
16593;SDS011;8410;52.532;13.336;2023-01-26T03:23:43;24.23;;;16.67;;
16593;SDS011;8410;52.532;13.336;2023-01-26T03:26:28;21.17;;;14.33;;
16593;SDS011;8410;52.532;13.336;2023-01-26T03:29:13;20.47;;;14.93;;
16593;SDS011;8410;52.532;13.336;2023-01-26T03:31:41;24.20;;;14.90;;
16593;SDS011;8410;52.532;13.336;2023-01-26T03:34:09;26.43;;;14.43;;
16593;SDS011;8410;52.532;13.336;2023-01-26T03:36:37;25.67;;;15.53;;
16593;SDS011;8410;52.532;13.336;2023-01-26T03:39:04;24.00;;;15.73;;
16593;SDS011;8410;52.532;13.336;2023-01-26T03:41:32;24.17;;;16.10;;
16593;SDS011;8410;52.532;13.336;2023-01-26T03:44:17;24.33;;;16.13;;
16593;SDS011;8410;52.532;13.336;2023-01-26T03:47:02;24.33;;;16.07;;
16593;SDS011;8410;52.532;13.336;2023-01-26T03:49:48;24.77;;;15.60;;
16593;SDS011;8410;52.532;13.336;2023-01-26T03:52:34;22.63;;;15.87;;
16593;SDS011;8410;52.532;13.336;2023-01-26T03:55:18;22.53;;;15.87;;
16593;SDS011;8410;52.532;13.336;2023-01-26T03:58:03;23.90;;;15.57;;
16593;SDS011;8410;52.532;13.336;2023-01-26T04:00:32;21.60;;;13.90;;
16593;SDS011;8410;52.532;13.336;2023-01-26T04:02:59;20.40;;;13.47;;
16593;SDS011;8410;52.532;13.336;2023-01-26T04:05:45;20.93;;;14.37;;
16593;SDS011;8410;52.532;13.336;2023-01-26T04:08:41;19.23;;;14.20;;
16593;SDS011;8410;52.532;13.336;2023-01-26T04:11:09;16.23;;;11.73;;
16593;SDS011;8410;52.532;13.336;2023-01-26T04:13:36;18.47;;;13.00;;
16593;SDS011;8410;52.532;13.336;2023-01-26T04:16:21;24.27;;;14.57;;
16593;SDS011;8410;52.532;13.336;2023-01-26T04:19:06;19.93;;;13.47;;
16593;SDS011;8410;52.532;13.336;2023-01-26T04:21:53;20.37;;;13.73;;
16593;SDS011;8410;52.532;13.336;2023-01-26T04:24:21;24.73;;;14.03;;
16593;SDS011;8410;52.532;13.336;2023-01-26T04:26:49;23.83;;;15.43;;
16593;SDS011;8410;52.532;13.336;2023-01-26T04:29:17;23.53;;;14.63;;
16593;SDS011;8410;52.532;13.336;2023-01-26T04:31:44;22.90;;;14.03;;
16593;SDS011;8410;52.532;13.336;2023-01-26T04:34:13;22.03;;;13.63;;
16593;SDS011;8410;52.532;13.336;2023-01-26T04:36:41;25.33;;;15.77;;
16593;SDS011;8410;52.532;13.336;2023-01-26T04:39:10;22.43;;;14.23;;
16593;SDS011;8410;52.532;13.336;2023-01-26T04:41:37;25.00;;;14.10;;
16593;SDS011;8410;52.532;13.336;2023-01-26T04:44:07;25.53;;;15.97;;
16593;SDS011;8410;52.532;13.336;2023-01-26T04:46:35;24.27;;;15.50;;
16593;SDS011;8410;52.532;13.336;2023-01-26T04:49:02;26.67;;;15.53;;
16593;SDS011;8410;52.532;13.336;2023-01-26T04:51:30;24.73;;;15.83;;
16593;SDS011;8410;52.532;13.336;2023-01-26T04:53:57;22.70;;;13.03;;
16593;SDS011;8410;52.532;13.336;2023-01-26T04:56:27;23.10;;;15.03;;
16593;SDS011;8410;52.532;13.336;2023-01-26T04:58:57;23.20;;;14.73;;
16593;SDS011;8410;52.532;13.336;2023-01-26T05:01:25;23.37;;;14.60;;
16593;SDS011;8410;52.532;13.336;2023-01-26T05:03:54;20.93;;;14.33;;
16593;SDS011;8410;52.532;13.336;2023-01-26T05:06:21;24.07;;;14.00;;
16593;SDS011;8410;52.532;13.336;2023-01-26T05:08:49;21.70;;;13.57;;
16593;SDS011;8410;52.532;13.336;2023-01-26T05:11:16;20.77;;;13.33;;
16593;SDS011;8410;52.532;13.336;2023-01-26T05:13:45;24.87;;;14.10;;
16593;SDS011;8410;52.532;13.336;2023-01-26T05:16:13;22.37;;;14.43;;
16593;SDS011;8410;52.532;13.336;2023-01-26T05:18:41;21.57;;;14.10;;
16593;SDS011;8410;52.532;13.336;2023-01-26T05:21:10;25.33;;;15.43;;
16593;SDS011;8410;52.532;13.336;2023-01-26T05:23:37;21.17;;;13.77;;
16593;SDS011;8410;52.532;13.336;2023-01-26T05:26:05;22.70;;;14.50;;
16593;SDS011;8410;52.532;13.336;2023-01-26T05:28:33;22.60;;;13.10;;
16593;SDS011;8410;52.532;13.336;2023-01-26T05:31:02;22.43;;;14.80;;
16593;SDS011;8410;52.532;13.336;2023-01-26T05:33:30;23.70;;;14.07;;
16593;SDS011;8410;52.532;13.336;2023-01-26T05:36:01;21.27;;;13.70;;
16593;SDS011;8410;52.532;13.336;2023-01-26T05:38:30;24.53;;;14.00;;
16593;SDS011;8410;52.532;13.336;2023-01-26T05:40:58;22.90;;;13.83;;
16593;SDS011;8410;52.532;13.336;2023-01-26T05:43:25;21.33;;;14.47;;
16593;SDS011;8410;52.532;13.336;2023-01-26T05:45:53;20.27;;;13.20;;
16593;SDS011;8410;52.532;13.336;2023-01-26T05:48:22;19.97;;;13.03;;
16593;SDS011;8410;52.532;13.336;2023-01-26T05:50:49;18.73;;;12.23;;
16593;SDS011;8410;52.532;13.336;2023-01-26T05:53:17;21.10;;;12.33;;
16593;SDS011;8410;52.532;13.336;2023-01-26T05:55:44;20.67;;;13.30;;
16593;SDS011;8410;52.532;13.336;2023-01-26T05:58:12;19.87;;;12.10;;
16593;SDS011;8410;52.532;13.336;2023-01-26T06:00:39;20.10;;;13.10;;
16593;SDS011;8410;52.532;13.336;2023-01-26T06:03:07;18.67;;;11.73;;
16593;SDS011;8410;52.532;13.336;2023-01-26T06:05:35;15.97;;;10.37;;
16593;SDS011;8410;52.532;13.336;2023-01-26T06:08:04;19.37;;;11.90;;
16593;SDS011;8410;52.532;13.336;2023-01-26T06:10:31;18.17;;;13.07;;
16593;SDS011;8410;52.532;13.336;2023-01-26T06:12:59;20.37;;;11.83;;
16593;SDS011;8410;52.532;13.336;2023-01-26T06:15:26;20.60;;;13.53;;
16593;SDS011;8410;52.532;13.336;2023-01-26T06:17:54;19.97;;;13.47;;
16593;SDS011;8410;52.532;13.336;2023-01-26T06:20:21;19.30;;;13.23;;
16593;SDS011;8410;52.532;13.336;2023-01-26T06:22:50;21.53;;;13.13;;
16593;SDS011;8410;52.532;13.336;2023-01-26T06:25:17;20.27;;;12.20;;
16593;SDS011;8410;52.532;13.336;2023-01-26T06:27:45;20.40;;;12.70;;
16593;SDS011;8410;52.532;13.336;2023-01-26T06:30:12;22.97;;;13.90;;
16593;SDS011;8410;52.532;13.336;2023-01-26T06:32:41;20.03;;;12.83;;
16593;SDS011;8410;52.532;13.336;2023-01-26T06:35:08;21.50;;;13.97;;
16593;SDS011;8410;52.532;13.336;2023-01-26T06:37:36;23.67;;;13.80;;
16593;SDS011;8410;52.532;13.336;2023-01-26T06:40:05;21.40;;;13.93;;
16593;SDS011;8410;52.532;13.336;2023-01-26T06:42:34;21.40;;;13.03;;
16593;SDS011;8410;52.532;13.336;2023-01-26T06:45:01;20.50;;;12.63;;
16593;SDS011;8410;52.532;13.336;2023-01-26T06:47:28;21.97;;;12.67;;
16593;SDS011;8410;52.532;13.336;2023-01-26T06:49:56;20.53;;;12.83;;
16593;SDS011;8410;52.532;13.336;2023-01-26T06:52:29;20.23;;;12.30;;
16593;SDS011;8410;52.532;13.336;2023-01-26T06:54:57;19.00;;;12.30;;
16593;SDS011;8410;52.532;13.336;2023-01-26T06:57:27;22.67;;;13.23;;
16593;SDS011;8410;52.532;13.336;2023-01-26T06:59:55;18.70;;;12.80;;
16593;SDS011;8410;52.532;13.336;2023-01-26T07:02:23;17.00;;;11.40;;
16593;SDS011;8410;52.532;13.336;2023-01-26T07:04:50;19.47;;;13.10;;
16593;SDS011;8410;52.532;13.336;2023-01-26T07:07:18;20.43;;;12.50;;
16593;SDS011;8410;52.532;13.336;2023-01-26T07:09:46;20.13;;;12.07;;
16593;SDS011;8410;52.532;13.336;2023-01-26T07:12:13;16.33;;;10.17;;
16593;SDS011;8410;52.532;13.336;2023-01-26T07:14:42;13.17;;;10.03;;
16593;SDS011;8410;52.532;13.336;2023-01-26T07:17:09;17.73;;;11.53;;
16593;SDS011;8410;52.532;13.336;2023-01-26T07:19:37;15.77;;;11.00;;
16593;SDS011;8410;52.532;13.336;2023-01-26T07:22:04;14.53;;;10.43;;
16593;SDS011;8410;52.532;13.336;2023-01-26T07:24:32;16.90;;;10.00;;
16593;SDS011;8410;52.532;13.336;2023-01-26T07:26:59;16.60;;;9.67;;
16593;SDS011;8410;52.532;13.336;2023-01-26T07:29:27;15.07;;;11.30;;
16593;SDS011;8410;52.532;13.336;2023-01-26T07:31:55;13.70;;;10.47;;
16593;SDS011;8410;52.532;13.336;2023-01-26T07:34:23;16.20;;;10.93;;
16593;SDS011;8410;52.532;13.336;2023-01-26T07:36:50;15.23;;;9.33;;
16593;SDS011;8410;52.532;13.336;2023-01-26T07:39:18;13.33;;;8.93;;
16593;SDS011;8410;52.532;13.336;2023-01-26T07:41:46;15.30;;;10.53;;
16593;SDS011;8410;52.532;13.336;2023-01-26T07:44:13;14.30;;;10.43;;
16593;SDS011;8410;52.532;13.336;2023-01-26T07:46:41;15.33;;;10.57;;
16593;SDS011;8410;52.532;13.336;2023-01-26T07:49:12;14.90;;;11.50;;
16593;SDS011;8410;52.532;13.336;2023-01-26T07:51:39;14.83;;;10.57;;
16593;SDS011;8410;52.532;13.336;2023-01-26T07:54:07;14.20;;;9.50;;
16593;SDS011;8410;52.532;13.336;2023-01-26T07:56:37;14.43;;;10.13;;
16593;SDS011;8410;52.532;13.336;2023-01-26T07:59:05;12.33;;;9.93;;
16593;SDS011;8410;52.532;13.336;2023-01-26T08:01:32;12.03;;;9.40;;
16593;SDS011;8410;52.532;13.336;2023-01-26T08:04:00;12.20;;;9.13;;
16593;SDS011;8410;52.532;13.336;2023-01-26T08:06:29;12.87;;;9.13;;
16593;SDS011;8410;52.532;13.336;2023-01-26T08:08:56;14.27;;;9.30;;
16593;SDS011;8410;52.532;13.336;2023-01-26T08:11:24;13.47;;;10.67;;
16593;SDS011;8410;52.532;13.336;2023-01-26T08:13:52;15.80;;;11.60;;
16593;SDS011;8410;52.532;13.336;2023-01-26T08:16:19;13.27;;;9.47;;
16593;SDS011;8410;52.532;13.336;2023-01-26T08:18:47;13.70;;;9.93;;
16593;SDS011;8410;52.532;13.336;2023-01-26T08:21:15;14.20;;;9.23;;
16593;SDS011;8410;52.532;13.336;2023-01-26T08:23:48;14.63;;;10.40;;
16593;SDS011;8410;52.532;13.336;2023-01-26T08:26:16;10.63;;;8.23;;
16593;SDS011;8410;52.532;13.336;2023-01-26T08:28:46;13.37;;;9.93;;
16593;SDS011;8410;52.532;13.336;2023-01-26T08:31:14;12.40;;;9.47;;
16593;SDS011;8410;52.532;13.336;2023-01-26T08:33:45;11.43;;;8.37;;
16593;SDS011;8410;52.532;13.336;2023-01-26T08:36:14;11.33;;;9.33;;
16593;SDS011;8410;52.532;13.336;2023-01-26T08:38:42;12.73;;;9.27;;
16593;SDS011;8410;52.532;13.336;2023-01-26T08:41:11;12.80;;;9.97;;
16593;SDS011;8410;52.532;13.336;2023-01-26T08:43:39;15.40;;;9.93;;
16593;SDS011;8410;52.532;13.336;2023-01-26T08:46:07;14.80;;;10.33;;
16593;SDS011;8410;52.532;13.336;2023-01-26T08:48:35;11.53;;;8.83;;
16593;SDS011;8410;52.532;13.336;2023-01-26T08:51:04;12.50;;;9.83;;
16593;SDS011;8410;52.532;13.336;2023-01-26T08:53:33;10.70;;;7.97;;
16593;SDS011;8410;52.532;13.336;2023-01-26T08:56:02;11.23;;;9.17;;
16593;SDS011;8410;52.532;13.336;2023-01-26T08:58:33;10.73;;;7.97;;
16593;SDS011;8410;52.532;13.336;2023-01-26T09:01:02;12.20;;;9.47;;
16593;SDS011;8410;52.532;13.336;2023-01-26T09:03:31;11.97;;;10.07;;
16593;SDS011;8410;52.532;13.336;2023-01-26T09:05:58;11.43;;;9.27;;
16593;SDS011;8410;52.532;13.336;2023-01-26T09:08:26;12.67;;;9.60;;
16593;SDS011;8410;52.532;13.336;2023-01-26T09:10:54;12.53;;;8.77;;
16593;SDS011;8410;52.532;13.336;2023-01-26T09:13:22;12.70;;;9.87;;
16593;SDS011;8410;52.532;13.336;2023-01-26T09:15:51;13.80;;;9.90;;
16593;SDS011;8410;52.532;13.336;2023-01-26T09:18:18;12.27;;;9.43;;
16593;SDS011;8410;52.532;13.336;2023-01-26T09:20:46;13.13;;;9.50;;
16593;SDS011;8410;52.532;13.336;2023-01-26T09:23:14;10.90;;;9.07;;
16593;SDS011;8410;52.532;13.336;2023-01-26T09:25:43;5.97;;;5.40;;
16593;SDS011;8410;52.532;13.336;2023-01-26T09:28:11;7.37;;;5.10;;
16593;SDS011;8410;52.532;13.336;2023-01-26T09:30:38;6.20;;;5.60;;
16593;SDS011;8410;52.532;13.336;2023-01-26T09:33:07;7.03;;;6.33;;
16593;SDS011;8410;52.532;13.336;2023-01-26T09:35:35;6.80;;;5.93;;
16593;SDS011;8410;52.532;13.336;2023-01-26T09:38:02;6.60;;;5.90;;
16593;SDS011;8410;52.532;13.336;2023-01-26T09:40:33;7.17;;;6.43;;
16593;SDS011;8410;52.532;13.336;2023-01-26T09:43:08;6.90;;;6.23;;
16593;SDS011;8410;52.532;13.336;2023-01-26T09:45:50;7.33;;;6.50;;
16593;SDS011;8410;52.532;13.336;2023-01-26T09:48:28;7.87;;;6.90;;
16593;SDS011;8410;52.532;13.336;2023-01-26T09:51:05;6.60;;;5.90;;
16593;SDS011;8410;52.532;13.336;2023-01-26T09:53:40;8.17;;;7.27;;
16593;SDS011;8410;52.532;13.336;2023-01-26T09:56:14;7.60;;;6.80;;
16593;SDS011;8410;52.532;13.336;2023-01-26T09:58:45;11.63;;;10.43;;
16593;SDS011;8410;52.532;13.336;2023-01-26T10:01:17;11.47;;;9.93;;
16593;SDS011;8410;52.532;13.336;2023-01-26T10:03:53;10.70;;;9.47;;
16593;SDS011;8410;52.532;13.336;2023-01-26T10:06:28;12.90;;;10.03;;
16593;SDS011;8410;52.532;13.336;2023-01-26T10:08:58;13.53;;;11.53;;
16593;SDS011;8410;52.532;13.336;2023-01-26T10:11:29;13.53;;;11.03;;
16593;SDS011;8410;52.532;13.336;2023-01-26T10:14:03;14.60;;;11.40;;
16593;SDS011;8410;52.532;13.336;2023-01-26T10:16:37;12.67;;;9.40;;
16593;SDS011;8410;52.532;13.336;2023-01-26T10:19:09;15.20;;;9.93;;
16593;SDS011;8410;52.532;13.336;2023-01-26T10:21:41;14.33;;;10.10;;
16593;SDS011;8410;52.532;13.336;2023-01-26T10:24:13;14.23;;;10.13;;
16593;SDS011;8410;52.532;13.336;2023-01-26T10:26:46;13.07;;;10.73;;
16593;SDS011;8410;52.532;13.336;2023-01-26T10:29:14;13.80;;;10.17;;
16593;SDS011;8410;52.532;13.336;2023-01-26T10:31:42;13.17;;;10.47;;
16593;SDS011;8410;52.532;13.336;2023-01-26T10:34:14;16.63;;;11.00;;
16593;SDS011;8410;52.532;13.336;2023-01-26T10:36:44;13.27;;;10.97;;
16593;SDS011;8410;52.532;13.336;2023-01-26T10:39:13;12.77;;;10.47;;
16593;SDS011;8410;52.532;13.336;2023-01-26T10:41:54;15.27;;;11.23;;
16593;SDS011;8410;52.532;13.336;2023-01-26T10:44:24;17.37;;;13.00;;
16593;SDS011;8410;52.532;13.336;2023-01-26T10:47:02;18.90;;;11.30;;
16593;SDS011;8410;52.532;13.336;2023-01-26T10:49:41;15.93;;;11.37;;
16593;SDS011;8410;52.532;13.336;2023-01-26T10:52:13;15.73;;;11.60;;
16593;SDS011;8410;52.532;13.336;2023-01-26T10:54:42;18.33;;;11.53;;
16593;SDS011;8410;52.532;13.336;2023-01-26T10:57:13;14.90;;;11.23;;
16593;SDS011;8410;52.532;13.336;2023-01-26T10:59:47;13.80;;;10.87;;
16593;SDS011;8410;52.532;13.336;2023-01-26T11:02:21;11.73;;;9.47;;
16593;SDS011;8410;52.532;13.336;2023-01-26T11:05:18;14.47;;;11.30;;
16593;SDS011;8410;52.532;13.336;2023-01-26T11:07:47;11.10;;;9.43;;
16593;SDS011;8410;52.532;13.336;2023-01-26T11:10:18;12.13;;;9.30;;
16593;SDS011;8410;52.532;13.336;2023-01-26T11:12:48;13.70;;;9.87;;
16593;SDS011;8410;52.532;13.336;2023-01-26T11:15:17;11.93;;;9.97;;
16593;SDS011;8410;52.532;13.336;2023-01-26T11:17:50;12.53;;;9.90;;
16593;SDS011;8410;52.532;13.336;2023-01-26T11:20:40;15.93;;;11.50;;
16593;SDS011;8410;52.532;13.336;2023-01-26T11:23:17;12.50;;;9.60;;
16593;SDS011;8410;52.532;13.336;2023-01-26T11:28:46;11.80;;;9.43;;
16593;SDS011;8410;52.532;13.336;2023-01-26T11:31:27;13.03;;;9.50;;
16593;SDS011;8410;52.532;13.336;2023-01-26T11:34:09;10.73;;;8.97;;
16593;SDS011;8410;52.532;13.336;2023-01-26T11:36:51;10.67;;;9.40;;
16593;SDS011;8410;52.532;13.336;2023-01-26T11:39:39;12.30;;;8.77;;
16593;SDS011;8410;52.532;13.336;2023-01-26T11:42:16;11.87;;;8.60;;
16593;SDS011;8410;52.532;13.336;2023-01-26T11:45:00;11.00;;;8.90;;
16593;SDS011;8410;52.532;13.336;2023-01-26T11:47:44;10.07;;;8.17;;
16593;SDS011;8410;52.532;13.336;2023-01-26T11:50:25;10.87;;;8.73;;
16593;SDS011;8410;52.532;13.336;2023-01-26T11:53:04;10.90;;;8.80;;
16593;SDS011;8410;52.532;13.336;2023-01-26T11:55:49;9.97;;;8.73;;
16593;SDS011;8410;52.532;13.336;2023-01-26T11:58:27;10.07;;;7.83;;
16593;SDS011;8410;52.532;13.336;2023-01-26T12:01:00;9.80;;;8.57;;
16593;SDS011;8410;52.532;13.336;2023-01-26T12:03:32;11.43;;;9.33;;
16593;SDS011;8410;52.532;13.336;2023-01-26T12:06:06;10.73;;;9.07;;
16593;SDS011;8410;52.532;13.336;2023-01-26T12:08:41;11.73;;;9.33;;
16593;SDS011;8410;52.532;13.336;2023-01-26T12:11:17;11.57;;;10.13;;
16593;SDS011;8410;52.532;13.336;2023-01-26T12:13:53;11.73;;;9.00;;
16593;SDS011;8410;52.532;13.336;2023-01-26T12:16:29;11.00;;;9.87;;
16593;SDS011;8410;52.532;13.336;2023-01-26T12:19:07;11.33;;;9.10;;
16593;SDS011;8410;52.532;13.336;2023-01-26T12:21:40;8.33;;;7.43;;
16593;SDS011;8410;52.532;13.336;2023-01-26T12:24:15;8.63;;;6.87;;
16593;SDS011;8410;52.532;13.336;2023-01-26T12:27:09;9.23;;;7.67;;
16593;SDS011;8410;52.532;13.336;2023-01-26T12:29:44;9.10;;;7.83;;
16593;SDS011;8410;52.532;13.336;2023-01-26T12:32:16;8.37;;;7.07;;
16593;SDS011;8410;52.532;13.336;2023-01-26T12:34:44;9.83;;;7.30;;
16593;SDS011;8410;52.532;13.336;2023-01-26T12:37:20;7.70;;;6.93;;
16593;SDS011;8410;52.532;13.336;2023-01-26T12:40:13;7.80;;;7.00;;
16593;SDS011;8410;52.532;13.336;2023-01-26T12:42:48;8.70;;;7.20;;
16593;SDS011;8410;52.532;13.336;2023-01-26T12:45:24;9.43;;;7.30;;
16593;SDS011;8410;52.532;13.336;2023-01-26T12:47:56;8.07;;;7.00;;
16593;SDS011;8410;52.532;13.336;2023-01-26T12:50:31;10.20;;;7.17;;
16593;SDS011;8410;52.532;13.336;2023-01-26T12:53:05;8.30;;;6.77;;
16593;SDS011;8410;52.532;13.336;2023-01-26T12:55:40;8.43;;;6.23;;
16593;SDS011;8410;52.532;13.336;2023-01-26T12:58:13;7.63;;;6.93;;
16593;SDS011;8410;52.532;13.336;2023-01-26T13:00:52;9.90;;;7.43;;
16593;SDS011;8410;52.532;13.336;2023-01-26T13:03:27;8.73;;;7.27;;
16593;SDS011;8410;52.532;13.336;2023-01-26T13:05:57;9.20;;;6.73;;
16593;SDS011;8410;52.532;13.336;2023-01-26T13:08:37;7.50;;;6.70;;
16593;SDS011;8410;52.532;13.336;2023-01-26T13:11:08;9.43;;;7.63;;
16593;SDS011;8410;52.532;13.336;2023-01-26T13:13:51;10.07;;;8.03;;
16593;SDS011;8410;52.532;13.336;2023-01-26T13:16:30;10.37;;;8.17;;
16593;SDS011;8410;52.532;13.336;2023-01-26T13:19:00;8.97;;;8.07;;
16593;SDS011;8410;52.532;13.336;2023-01-26T13:21:40;11.17;;;8.83;;
16593;SDS011;8410;52.532;13.336;2023-01-26T13:29:58;9.23;;;8.23;;
16593;SDS011;8410;52.532;13.336;2023-01-26T13:35:21;10.07;;;9.07;;
16593;SDS011;8410;52.532;13.336;2023-01-26T13:37:52;9.37;;;8.10;;
16593;SDS011;8410;52.532;13.336;2023-01-26T13:40:27;11.27;;;8.50;;
16593;SDS011;8410;52.532;13.336;2023-01-26T13:43:00;10.77;;;8.80;;
16593;SDS011;8410;52.532;13.336;2023-01-26T13:45:54;29.77;;;18.40;;
16593;SDS011;8410;52.532;13.336;2023-01-26T13:48:31;13.03;;;10.10;;
16593;SDS011;8410;52.532;13.336;2023-01-26T13:51:03;12.60;;;10.70;;
16593;SDS011;8410;52.532;13.336;2023-01-26T13:53:35;13.83;;;10.83;;
16593;SDS011;8410;52.532;13.336;2023-01-26T13:56:04;15.07;;;11.33;;
16593;SDS011;8410;52.532;13.336;2023-01-26T13:58:34;13.10;;;11.23;;
16593;SDS011;8410;52.532;13.336;2023-01-26T14:01:03;15.87;;;11.57;;
16593;SDS011;8410;52.532;13.336;2023-01-26T14:03:32;13.30;;;10.20;;
16593;SDS011;8410;52.532;13.336;2023-01-26T14:06:00;15.20;;;10.97;;
16593;SDS011;8410;52.532;13.336;2023-01-26T14:08:30;14.73;;;10.77;;
16593;SDS011;8410;52.532;13.336;2023-01-26T14:10:59;14.17;;;11.40;;
16593;SDS011;8410;52.532;13.336;2023-01-26T14:13:30;13.37;;;10.57;;
16593;SDS011;8410;52.532;13.336;2023-01-26T14:16:01;11.20;;;9.40;;
16593;SDS011;8410;52.532;13.336;2023-01-26T14:18:33;12.90;;;10.40;;
16593;SDS011;8410;52.532;13.336;2023-01-26T14:21:02;11.00;;;9.57;;
16593;SDS011;8410;52.532;13.336;2023-01-26T14:23:32;11.73;;;9.47;;
16593;SDS011;8410;52.532;13.336;2023-01-26T14:26:01;12.73;;;9.67;;
16593;SDS011;8410;52.532;13.336;2023-01-26T14:28:31;11.07;;;9.07;;
16593;SDS011;8410;52.532;13.336;2023-01-26T14:31:02;12.20;;;9.87;;
16593;SDS011;8410;52.532;13.336;2023-01-26T14:33:35;10.40;;;8.97;;
16593;SDS011;8410;52.532;13.336;2023-01-26T14:36:03;15.37;;;11.33;;
16593;SDS011;8410;52.532;13.336;2023-01-26T14:38:38;15.87;;;11.63;;
16593;SDS011;8410;52.532;13.336;2023-01-26T14:41:09;15.50;;;12.47;;
16593;SDS011;8410;52.532;13.336;2023-01-26T14:43:41;15.87;;;11.97;;
16593;SDS011;8410;52.532;13.336;2023-01-26T14:46:12;15.27;;;12.10;;
16593;SDS011;8410;52.532;13.336;2023-01-26T14:48:43;17.50;;;13.70;;
16593;SDS011;8410;52.532;13.336;2023-01-26T14:51:17;19.37;;;13.73;;
16593;SDS011;8410;52.532;13.336;2023-01-26T14:53:48;16.73;;;13.23;;
16593;SDS011;8410;52.532;13.336;2023-01-26T14:56:17;17.20;;;13.43;;
16593;SDS011;8410;52.532;13.336;2023-01-26T14:58:47;18.07;;;13.37;;
16593;SDS011;8410;52.532;13.336;2023-01-26T15:01:22;19.70;;;14.50;;